sensor_id;sensor_type;location;lat;lon;timestamp;P1;durP1;ratioP1;P2;durP2;ratioP2
16531;SDS011;66872;63.142;14.482;2023-09-19T00:00:19;1.00;;;0.90;;
16531;SDS011;66872;63.142;14.482;2023-09-19T00:02:51;1.13;;;1.03;;
16531;SDS011;66872;63.142;14.482;2023-09-19T00:05:18;0.97;;;0.80;;
16531;SDS011;66872;63.142;14.482;2023-09-19T00:07:48;1.10;;;1.00;;
16531;SDS011;66872;63.142;14.482;2023-09-19T00:10:20;1.20;;;0.93;;
16531;SDS011;66872;63.142;14.482;2023-09-19T00:12:47;2.03;;;1.20;;
16531;SDS011;66872;63.142;14.482;2023-09-19T00:15:13;1.00;;;0.90;;
16531;SDS011;66872;63.142;14.482;2023-09-19T00:17:42;1.20;;;1.10;;
16531;SDS011;66872;63.142;14.482;2023-09-19T00:20:08;0.83;;;0.83;;
16531;SDS011;66872;63.142;14.482;2023-09-19T00:22:41;1.10;;;0.90;;
16531;SDS011;66872;63.142;14.482;2023-09-19T00:25:10;1.20;;;1.10;;
16531;SDS011;66872;63.142;14.482;2023-09-19T00:27:37;1.30;;;1.20;;
16531;SDS011;66872;63.142;14.482;2023-09-19T00:30:07;1.20;;;1.10;;
16531;SDS011;66872;63.142;14.482;2023-09-19T00:32:39;0.90;;;0.90;;
16531;SDS011;66872;63.142;14.482;2023-09-19T00:35:06;0.90;;;0.90;;
16531;SDS011;66872;63.142;14.482;2023-09-19T00:37:34;1.00;;;0.90;;
16531;SDS011;66872;63.142;14.482;2023-09-19T00:40:00;1.10;;;1.00;;
16531;SDS011;66872;63.142;14.482;2023-09-19T00:42:27;1.20;;;1.10;;
16531;SDS011;66872;63.142;14.482;2023-09-19T00:44:53;1.10;;;1.00;;
16531;SDS011;66872;63.142;14.482;2023-09-19T00:47:19;1.10;;;1.00;;
16531;SDS011;66872;63.142;14.482;2023-09-19T00:49:45;1.10;;;1.00;;
16531;SDS011;66872;63.142;14.482;2023-09-19T00:52:14;0.90;;;0.90;;
16531;SDS011;66872;63.142;14.482;2023-09-19T00:54:40;0.90;;;0.90;;
16531;SDS011;66872;63.142;14.482;2023-09-19T00:57:06;1.03;;;0.97;;
16531;SDS011;66872;63.142;14.482;2023-09-19T00:59:33;1.20;;;1.10;;
16531;SDS011;66872;63.142;14.482;2023-09-19T01:02:01;1.30;;;0.97;;
16531;SDS011;66872;63.142;14.482;2023-09-19T01:04:28;1.00;;;1.00;;
16531;SDS011;66872;63.142;14.482;2023-09-19T01:06:54;0.83;;;0.83;;
16531;SDS011;66872;63.142;14.482;2023-09-19T01:09:20;0.90;;;0.90;;
16531;SDS011;66872;63.142;14.482;2023-09-19T01:11:47;0.93;;;0.93;;
16531;SDS011;66872;63.142;14.482;2023-09-19T01:14:20;1.20;;;1.10;;
16531;SDS011;66872;63.142;14.482;2023-09-19T01:17:23;0.80;;;0.80;;
16531;SDS011;66872;63.142;14.482;2023-09-19T01:23:16;1.13;;;0.90;;
16531;SDS011;66872;63.142;14.482;2023-09-19T01:25:49;1.10;;;1.00;;
16531;SDS011;66872;63.142;14.482;2023-09-19T01:30:56;1.13;;;1.03;;
16531;SDS011;66872;63.142;14.482;2023-09-19T01:33:24;1.17;;;0.97;;
16531;SDS011;66872;63.142;14.482;2023-09-19T01:35:51;0.87;;;0.80;;
16531;SDS011;66872;63.142;14.482;2023-09-19T01:38:18;1.03;;;0.93;;
16531;SDS011;66872;63.142;14.482;2023-09-19T01:40:54;1.10;;;0.93;;
16531;SDS011;66872;63.142;14.482;2023-09-19T01:43:42;0.80;;;0.80;;
16531;SDS011;66872;63.142;14.482;2023-09-19T01:46:13;0.93;;;0.93;;
16531;SDS011;66872;63.142;14.482;2023-09-19T01:52:13;0.80;;;0.80;;
16531;SDS011;66872;63.142;14.482;2023-09-19T01:54:34;0.80;;;0.80;;
16531;SDS011;66872;63.142;14.482;2023-09-19T01:57:10;0.80;;;0.80;;
16531;SDS011;66872;63.142;14.482;2023-09-19T01:59:57;0.90;;;0.90;;
16531;SDS011;66872;63.142;14.482;2023-09-19T02:02:36;0.80;;;0.80;;
16531;SDS011;66872;63.142;14.482;2023-09-19T02:05:03;0.93;;;0.93;;
16531;SDS011;66872;63.142;14.482;2023-09-19T02:07:30;1.13;;;1.03;;
16531;SDS011;66872;63.142;14.482;2023-09-19T02:09:59;1.00;;;0.90;;
16531;SDS011;66872;63.142;14.482;2023-09-19T02:12:30;1.27;;;1.07;;
16531;SDS011;66872;63.142;14.482;2023-09-19T02:14:57;1.03;;;0.97;;
16531;SDS011;66872;63.142;14.482;2023-09-19T02:17:24;1.03;;;0.90;;
16531;SDS011;66872;63.142;14.482;2023-09-19T02:19:53;0.90;;;0.90;;
16531;SDS011;66872;63.142;14.482;2023-09-19T02:22:20;0.70;;;0.70;;
16531;SDS011;66872;63.142;14.482;2023-09-19T02:24:49;0.70;;;0.70;;
16531;SDS011;66872;63.142;14.482;2023-09-19T02:27:16;0.97;;;0.90;;
16531;SDS011;66872;63.142;14.482;2023-09-19T02:29:42;1.43;;;0.93;;
16531;SDS011;66872;63.142;14.482;2023-09-19T02:32:08;1.20;;;1.10;;
16531;SDS011;66872;63.142;14.482;2023-09-19T02:34:37;0.90;;;0.90;;
16531;SDS011;66872;63.142;14.482;2023-09-19T02:37:04;0.70;;;0.70;;
16531;SDS011;66872;63.142;14.482;2023-09-19T02:39:30;0.87;;;0.87;;
16531;SDS011;66872;63.142;14.482;2023-09-19T02:41:56;1.00;;;1.00;;
16531;SDS011;66872;63.142;14.482;2023-09-19T02:44:22;1.20;;;1.10;;
16531;SDS011;66872;63.142;14.482;2023-09-19T02:46:48;1.03;;;0.97;;
16531;SDS011;66872;63.142;14.482;2023-09-19T02:49:14;0.90;;;0.90;;
16531;SDS011;66872;63.142;14.482;2023-09-19T02:51:40;1.17;;;1.03;;
16531;SDS011;66872;63.142;14.482;2023-09-19T02:54:06;0.93;;;0.83;;
16531;SDS011;66872;63.142;14.482;2023-09-19T02:56:32;0.93;;;0.90;;
16531;SDS011;66872;63.142;14.482;2023-09-19T02:58:58;0.77;;;0.77;;
16531;SDS011;66872;63.142;14.482;2023-09-19T03:01:25;0.80;;;0.80;;
16531;SDS011;66872;63.142;14.482;2023-09-19T03:03:53;1.17;;;1.00;;
16531;SDS011;66872;63.142;14.482;2023-09-19T03:06:18;0.90;;;0.90;;
16531;SDS011;66872;63.142;14.482;2023-09-19T03:08:45;0.80;;;0.80;;
16531;SDS011;66872;63.142;14.482;2023-09-19T03:11:12;1.23;;;1.10;;
16531;SDS011;66872;63.142;14.482;2023-09-19T03:13:40;0.80;;;0.80;;
16531;SDS011;66872;63.142;14.482;2023-09-19T03:16:07;1.53;;;0.80;;
16531;SDS011;66872;63.142;14.482;2023-09-19T03:18:36;0.70;;;0.70;;
16531;SDS011;66872;63.142;14.482;2023-09-19T03:21:01;0.97;;;0.93;;
16531;SDS011;66872;63.142;14.482;2023-09-19T03:23:27;0.70;;;0.70;;
16531;SDS011;66872;63.142;14.482;2023-09-19T03:25:54;0.97;;;0.90;;
16531;SDS011;66872;63.142;14.482;2023-09-19T03:28:21;0.73;;;0.73;;
16531;SDS011;66872;63.142;14.482;2023-09-19T03:31:04;0.80;;;0.80;;
16531;SDS011;66872;63.142;14.482;2023-09-19T03:33:30;1.00;;;1.00;;
16531;SDS011;66872;63.142;14.482;2023-09-19T03:35:58;0.90;;;0.90;;
16531;SDS011;66872;63.142;14.482;2023-09-19T03:38:24;0.90;;;0.90;;
16531;SDS011;66872;63.142;14.482;2023-09-19T03:40:50;0.90;;;0.90;;
16531;SDS011;66872;63.142;14.482;2023-09-19T03:43:16;1.10;;;1.00;;
16531;SDS011;66872;63.142;14.482;2023-09-19T03:45:42;2.00;;;0.90;;
16531;SDS011;66872;63.142;14.482;2023-09-19T03:48:11;0.83;;;0.83;;
16531;SDS011;66872;63.142;14.482;2023-09-19T03:50:37;1.10;;;1.00;;
16531;SDS011;66872;63.142;14.482;2023-09-19T03:53:03;0.80;;;0.80;;
16531;SDS011;66872;63.142;14.482;2023-09-19T03:55:29;0.80;;;0.80;;
16531;SDS011;66872;63.142;14.482;2023-09-19T03:57:55;0.97;;;0.90;;
16531;SDS011;66872;63.142;14.482;2023-09-19T04:00:21;0.93;;;0.90;;
16531;SDS011;66872;63.142;14.482;2023-09-19T04:02:51;0.87;;;0.87;;
16531;SDS011;66872;63.142;14.482;2023-09-19T04:05:17;0.80;;;0.80;;
16531;SDS011;66872;63.142;14.482;2023-09-19T04:07:43;0.80;;;0.80;;
16531;SDS011;66872;63.142;14.482;2023-09-19T04:10:09;0.90;;;0.90;;
16531;SDS011;66872;63.142;14.482;2023-09-19T04:12:39;0.90;;;0.90;;
16531;SDS011;66872;63.142;14.482;2023-09-19T04:15:05;1.00;;;0.90;;
16531;SDS011;66872;63.142;14.482;2023-09-19T04:17:32;0.80;;;0.80;;
16531;SDS011;66872;63.142;14.482;2023-09-19T04:20:00;1.10;;;1.00;;
16531;SDS011;66872;63.142;14.482;2023-09-19T04:22:26;0.87;;;0.87;;
16531;SDS011;66872;63.142;14.482;2023-09-19T04:24:52;0.83;;;0.83;;
16531;SDS011;66872;63.142;14.482;2023-09-19T04:27:17;0.87;;;0.83;;
16531;SDS011;66872;63.142;14.482;2023-09-19T04:29:44;0.87;;;0.87;;
16531;SDS011;66872;63.142;14.482;2023-09-19T04:32:09;0.80;;;0.80;;
16531;SDS011;66872;63.142;14.482;2023-09-19T04:34:35;0.83;;;0.83;;
16531;SDS011;66872;63.142;14.482;2023-09-19T04:37:03;0.73;;;0.73;;
16531;SDS011;66872;63.142;14.482;2023-09-19T04:39:30;0.80;;;0.80;;
16531;SDS011;66872;63.142;14.482;2023-09-19T04:41:56;1.10;;;1.00;;
16531;SDS011;66872;63.142;14.482;2023-09-19T04:44:22;0.60;;;0.60;;
16531;SDS011;66872;63.142;14.482;2023-09-19T04:46:48;0.70;;;0.70;;
16531;SDS011;66872;63.142;14.482;2023-09-19T04:49:14;0.90;;;0.90;;
16531;SDS011;66872;63.142;14.482;2023-09-19T04:51:40;1.70;;;0.87;;
16531;SDS011;66872;63.142;14.482;2023-09-19T04:54:05;0.80;;;0.80;;
16531;SDS011;66872;63.142;14.482;2023-09-19T04:56:32;0.80;;;0.80;;
16531;SDS011;66872;63.142;14.482;2023-09-19T04:58:58;1.00;;;0.90;;
16531;SDS011;66872;63.142;14.482;2023-09-19T05:01:25;0.70;;;0.70;;
16531;SDS011;66872;63.142;14.482;2023-09-19T05:03:51;0.80;;;0.80;;
16531;SDS011;66872;63.142;14.482;2023-09-19T05:06:19;0.60;;;0.60;;
16531;SDS011;66872;63.142;14.482;2023-09-19T05:08:48;0.70;;;0.70;;
16531;SDS011;66872;63.142;14.482;2023-09-19T05:11:18;0.80;;;0.80;;
16531;SDS011;66872;63.142;14.482;2023-09-19T05:13:45;1.13;;;1.00;;
16531;SDS011;66872;63.142;14.482;2023-09-19T05:16:10;0.93;;;0.90;;
16531;SDS011;66872;63.142;14.482;2023-09-19T05:18:36;0.80;;;0.80;;
16531;SDS011;66872;63.142;14.482;2023-09-19T05:21:02;0.90;;;0.90;;
16531;SDS011;66872;63.142;14.482;2023-09-19T05:23:28;0.80;;;0.80;;
16531;SDS011;66872;63.142;14.482;2023-09-19T05:25:54;0.77;;;0.77;;
16531;SDS011;66872;63.142;14.482;2023-09-19T05:28:21;0.80;;;0.80;;
16531;SDS011;66872;63.142;14.482;2023-09-19T05:30:47;0.87;;;0.80;;
16531;SDS011;66872;63.142;14.482;2023-09-19T05:33:14;1.00;;;0.80;;
16531;SDS011;66872;63.142;14.482;2023-09-19T05:35:39;0.70;;;0.70;;
16531;SDS011;66872;63.142;14.482;2023-09-19T05:38:06;1.00;;;0.97;;
16531;SDS011;66872;63.142;14.482;2023-09-19T05:40:38;0.80;;;0.80;;
16531;SDS011;66872;63.142;14.482;2023-09-19T05:43:07;0.80;;;0.80;;
16531;SDS011;66872;63.142;14.482;2023-09-19T05:45:33;0.70;;;0.70;;
16531;SDS011;66872;63.142;14.482;2023-09-19T05:48:06;0.80;;;0.80;;
16531;SDS011;66872;63.142;14.482;2023-09-19T05:50:39;0.70;;;0.70;;
16531;SDS011;66872;63.142;14.482;2023-09-19T05:53:05;0.90;;;0.80;;
16531;SDS011;66872;63.142;14.482;2023-09-19T05:55:31;0.60;;;0.60;;
16531;SDS011;66872;63.142;14.482;2023-09-19T05:57:57;0.80;;;0.80;;
16531;SDS011;66872;63.142;14.482;2023-09-19T06:00:23;0.87;;;0.87;;
16531;SDS011;66872;63.142;14.482;2023-09-19T06:02:56;0.63;;;0.63;;
16531;SDS011;66872;63.142;14.482;2023-09-19T06:05:23;0.70;;;0.70;;
16531;SDS011;66872;63.142;14.482;2023-09-19T06:07:49;0.80;;;0.80;;
16531;SDS011;66872;63.142;14.482;2023-09-19T06:10:17;0.50;;;0.50;;
16531;SDS011;66872;63.142;14.482;2023-09-19T06:12:43;0.83;;;0.83;;
16531;SDS011;66872;63.142;14.482;2023-09-19T06:15:10;0.87;;;0.87;;
16531;SDS011;66872;63.142;14.482;2023-09-19T06:17:48;0.60;;;0.60;;
16531;SDS011;66872;63.142;14.482;2023-09-19T06:20:15;0.77;;;0.77;;
16531;SDS011;66872;63.142;14.482;2023-09-19T06:22:42;1.03;;;0.93;;
16531;SDS011;66872;63.142;14.482;2023-09-19T06:25:12;0.70;;;0.70;;
16531;SDS011;66872;63.142;14.482;2023-09-19T06:27:47;0.70;;;0.70;;
16531;SDS011;66872;63.142;14.482;2023-09-19T06:30:17;0.73;;;0.73;;
16531;SDS011;66872;63.142;14.482;2023-09-19T06:32:43;0.80;;;0.80;;
16531;SDS011;66872;63.142;14.482;2023-09-19T06:35:09;0.70;;;0.70;;
16531;SDS011;66872;63.142;14.482;2023-09-19T06:37:39;0.70;;;0.70;;
16531;SDS011;66872;63.142;14.482;2023-09-19T06:40:12;0.70;;;0.70;;
16531;SDS011;66872;63.142;14.482;2023-09-19T06:42:43;0.80;;;0.80;;
16531;SDS011;66872;63.142;14.482;2023-09-19T06:45:13;0.57;;;0.57;;
16531;SDS011;66872;63.142;14.482;2023-09-19T06:47:46;0.77;;;0.77;;
16531;SDS011;66872;63.142;14.482;2023-09-19T06:50:19;0.70;;;0.70;;
16531;SDS011;66872;63.142;14.482;2023-09-19T06:52:50;0.67;;;0.67;;
16531;SDS011;66872;63.142;14.482;2023-09-19T06:55:19;0.70;;;0.70;;
16531;SDS011;66872;63.142;14.482;2023-09-19T06:57:48;0.40;;;0.40;;
16531;SDS011;66872;63.142;14.482;2023-09-19T07:00:14;0.80;;;0.80;;
16531;SDS011;66872;63.142;14.482;2023-09-19T07:03:02;0.63;;;0.63;;
16531;SDS011;66872;63.142;14.482;2023-09-19T07:05:33;0.80;;;0.80;;
16531;SDS011;66872;63.142;14.482;2023-09-19T07:08:02;0.80;;;0.80;;
16531;SDS011;66872;63.142;14.482;2023-09-19T07:10:29;0.60;;;0.60;;
16531;SDS011;66872;63.142;14.482;2023-09-19T07:12:56;0.70;;;0.70;;
16531;SDS011;66872;63.142;14.482;2023-09-19T07:15:26;0.77;;;0.77;;
16531;SDS011;66872;63.142;14.482;2023-09-19T07:17:52;0.60;;;0.60;;
16531;SDS011;66872;63.142;14.482;2023-09-19T07:20:19;0.50;;;0.50;;
16531;SDS011;66872;63.142;14.482;2023-09-19T07:22:45;1.00;;;0.87;;
16531;SDS011;66872;63.142;14.482;2023-09-19T07:25:12;0.70;;;0.70;;
16531;SDS011;66872;63.142;14.482;2023-09-19T07:27:39;0.70;;;0.70;;
16531;SDS011;66872;63.142;14.482;2023-09-19T07:30:06;0.80;;;0.80;;
16531;SDS011;66872;63.142;14.482;2023-09-19T07:32:33;0.80;;;0.80;;
16531;SDS011;66872;63.142;14.482;2023-09-19T07:35:01;0.40;;;0.40;;
16531;SDS011;66872;63.142;14.482;2023-09-19T07:37:28;0.90;;;0.90;;
16531;SDS011;66872;63.142;14.482;2023-09-19T07:39:56;0.67;;;0.67;;
16531;SDS011;66872;63.142;14.482;2023-09-19T07:42:22;0.73;;;0.73;;
16531;SDS011;66872;63.142;14.482;2023-09-19T07:44:48;0.80;;;0.80;;
16531;SDS011;66872;63.142;14.482;2023-09-19T07:47:16;0.70;;;0.70;;
16531;SDS011;66872;63.142;14.482;2023-09-19T07:49:42;0.60;;;0.60;;
16531;SDS011;66872;63.142;14.482;2023-09-19T07:52:08;0.80;;;0.80;;
16531;SDS011;66872;63.142;14.482;2023-09-19T07:54:35;0.70;;;0.70;;
16531;SDS011;66872;63.142;14.482;2023-09-19T07:57:02;0.50;;;0.50;;
16531;SDS011;66872;63.142;14.482;2023-09-19T07:59:27;0.70;;;0.70;;
16531;SDS011;66872;63.142;14.482;2023-09-19T08:01:53;0.67;;;0.67;;
16531;SDS011;66872;63.142;14.482;2023-09-19T08:04:19;0.80;;;0.80;;
16531;SDS011;66872;63.142;14.482;2023-09-19T08:06:44;0.60;;;0.60;;
16531;SDS011;66872;63.142;14.482;2023-09-19T08:09:10;1.10;;;0.70;;
16531;SDS011;66872;63.142;14.482;2023-09-19T08:11:37;0.80;;;0.80;;
16531;SDS011;66872;63.142;14.482;2023-09-19T08:14:04;0.60;;;0.60;;
16531;SDS011;66872;63.142;14.482;2023-09-19T08:16:32;0.70;;;0.70;;
16531;SDS011;66872;63.142;14.482;2023-09-19T08:18:58;0.77;;;0.77;;
16531;SDS011;66872;63.142;14.482;2023-09-19T08:21:23;0.73;;;0.73;;
16531;SDS011;66872;63.142;14.482;2023-09-19T08:23:50;0.80;;;0.80;;
16531;SDS011;66872;63.142;14.482;2023-09-19T08:26:17;0.70;;;0.70;;
16531;SDS011;66872;63.142;14.482;2023-09-19T08:28:44;0.60;;;0.60;;
16531;SDS011;66872;63.142;14.482;2023-09-19T08:31:10;0.60;;;0.60;;
16531;SDS011;66872;63.142;14.482;2023-09-19T08:33:36;0.70;;;0.70;;
16531;SDS011;66872;63.142;14.482;2023-09-19T08:36:03;0.50;;;0.50;;
16531;SDS011;66872;63.142;14.482;2023-09-19T08:38:30;0.67;;;0.67;;
16531;SDS011;66872;63.142;14.482;2023-09-19T08:40:58;0.73;;;0.70;;
16531;SDS011;66872;63.142;14.482;2023-09-19T08:43:24;0.57;;;0.57;;
16531;SDS011;66872;63.142;14.482;2023-09-19T08:45:56;0.60;;;0.60;;
16531;SDS011;66872;63.142;14.482;2023-09-19T08:48:29;0.50;;;0.50;;
16531;SDS011;66872;63.142;14.482;2023-09-19T08:56:17;0.60;;;0.60;;
16531;SDS011;66872;63.142;14.482;2023-09-19T08:59:26;0.70;;;0.70;;
16531;SDS011;66872;63.142;14.482;2023-09-19T09:01:33;0.50;;;0.50;;
16531;SDS011;66872;63.142;14.482;2023-09-19T09:04:00;0.67;;;0.67;;
16531;SDS011;66872;63.142;14.482;2023-09-19T09:06:27;0.70;;;0.70;;
16531;SDS011;66872;63.142;14.482;2023-09-19T09:08:54;0.50;;;0.50;;
16531;SDS011;66872;63.142;14.482;2023-09-19T09:11:20;0.60;;;0.60;;
16531;SDS011;66872;63.142;14.482;2023-09-19T09:13:46;0.60;;;0.60;;
16531;SDS011;66872;63.142;14.482;2023-09-19T09:16:13;0.70;;;0.70;;
16531;SDS011;66872;63.142;14.482;2023-09-19T09:18:44;0.80;;;0.80;;
16531;SDS011;66872;63.142;14.482;2023-09-19T09:21:11;0.80;;;0.80;;
16531;SDS011;66872;63.142;14.482;2023-09-19T09:23:38;0.57;;;0.57;;
16531;SDS011;66872;63.142;14.482;2023-09-19T09:26:04;0.80;;;0.80;;
16531;SDS011;66872;63.142;14.482;2023-09-19T09:28:32;0.60;;;0.60;;
16531;SDS011;66872;63.142;14.482;2023-09-19T09:31:00;0.80;;;0.80;;
16531;SDS011;66872;63.142;14.482;2023-09-19T09:33:37;0.80;;;0.80;;
16531;SDS011;66872;63.142;14.482;2023-09-19T09:36:04;0.70;;;0.70;;
16531;SDS011;66872;63.142;14.482;2023-09-19T09:38:44;0.60;;;0.60;;
16531;SDS011;66872;63.142;14.482;2023-09-19T09:41:13;0.70;;;0.70;;
16531;SDS011;66872;63.142;14.482;2023-09-19T09:43:52;0.70;;;0.70;;
16531;SDS011;66872;63.142;14.482;2023-09-19T09:46:18;0.70;;;0.70;;
16531;SDS011;66872;63.142;14.482;2023-09-19T09:48:45;0.60;;;0.60;;
16531;SDS011;66872;63.142;14.482;2023-09-19T09:51:32;0.87;;;0.87;;
16531;SDS011;66872;63.142;14.482;2023-09-19T09:54:14;0.70;;;0.70;;
16531;SDS011;66872;63.142;14.482;2023-09-19T09:56:53;0.70;;;0.70;;
16531;SDS011;66872;63.142;14.482;2023-09-19T09:59:20;0.70;;;0.70;;
16531;SDS011;66872;63.142;14.482;2023-09-19T10:01:49;0.50;;;0.50;;
16531;SDS011;66872;63.142;14.482;2023-09-19T10:04:36;0.70;;;0.70;;
16531;SDS011;66872;63.142;14.482;2023-09-19T10:07:07;0.77;;;0.77;;
16531;SDS011;66872;63.142;14.482;2023-09-19T10:09:45;0.60;;;0.60;;
16531;SDS011;66872;63.142;14.482;2023-09-19T10:12:12;0.80;;;0.80;;
16531;SDS011;66872;63.142;14.482;2023-09-19T10:14:40;0.60;;;0.60;;
16531;SDS011;66872;63.142;14.482;2023-09-19T10:17:09;0.70;;;0.70;;
16531;SDS011;66872;63.142;14.482;2023-09-19T10:19:37;0.60;;;0.60;;
16531;SDS011;66872;63.142;14.482;2023-09-19T10:22:43;0.50;;;0.50;;
16531;SDS011;66872;63.142;14.482;2023-09-19T10:25:22;0.53;;;0.53;;
16531;SDS011;66872;63.142;14.482;2023-09-19T10:28:00;0.50;;;0.50;;
16531;SDS011;66872;63.142;14.482;2023-09-19T10:30:30;0.50;;;0.50;;
16531;SDS011;66872;63.142;14.482;2023-09-19T10:33:00;0.80;;;0.80;;
16531;SDS011;66872;63.142;14.482;2023-09-19T10:35:27;0.53;;;0.53;;
16531;SDS011;66872;63.142;14.482;2023-09-19T10:37:54;0.53;;;0.53;;
16531;SDS011;66872;63.142;14.482;2023-09-19T10:40:26;0.70;;;0.70;;
16531;SDS011;66872;63.142;14.482;2023-09-19T10:43:03;0.50;;;0.50;;
16531;SDS011;66872;63.142;14.482;2023-09-19T10:45:31;0.60;;;0.60;;
16531;SDS011;66872;63.142;14.482;2023-09-19T10:47:58;0.73;;;0.73;;
16531;SDS011;66872;63.142;14.482;2023-09-19T10:50:25;0.50;;;0.50;;
16531;SDS011;66872;63.142;14.482;2023-09-19T10:52:56;0.47;;;0.47;;
16531;SDS011;66872;63.142;14.482;2023-09-19T10:55:29;0.70;;;0.70;;
16531;SDS011;66872;63.142;14.482;2023-09-19T10:57:57;0.70;;;0.70;;
16531;SDS011;66872;63.142;14.482;2023-09-19T11:00:52;0.60;;;0.60;;
16531;SDS011;66872;63.142;14.482;2023-09-19T11:03:30;0.80;;;0.70;;
16531;SDS011;66872;63.142;14.482;2023-09-19T11:06:08;0.60;;;0.60;;
16531;SDS011;66872;63.142;14.482;2023-09-19T11:11:46;0.73;;;0.73;;
16531;SDS011;66872;63.142;14.482;2023-09-19T11:30:37;1.93;;;1.40;;
16531;SDS011;66872;63.142;14.482;2023-09-19T11:33:23;7.40;;;1.70;;
16531;SDS011;66872;63.142;14.482;2023-09-19T11:36:05;6.13;;;1.73;;
16531;SDS011;66872;63.142;14.482;2023-09-19T11:39:20;2.83;;;1.37;;
16531;SDS011;66872;63.142;14.482;2023-09-19T11:43:53;2.63;;;1.50;;
16531;SDS011;66872;63.142;14.482;2023-09-19T11:46:35;4.80;;;1.83;;
16531;SDS011;66872;63.142;14.482;2023-09-19T11:49:24;2.07;;;1.40;;
16531;SDS011;66872;63.142;14.482;2023-09-19T11:51:55;3.57;;;1.70;;
16531;SDS011;66872;63.142;14.482;2023-09-19T11:54:21;4.60;;;1.43;;
16531;SDS011;66872;63.142;14.482;2023-09-19T11:56:51;3.13;;;1.20;;
16531;SDS011;66872;63.142;14.482;2023-09-19T11:59:28;2.67;;;1.40;;
16531;SDS011;66872;63.142;14.482;2023-09-19T12:04:36;2.27;;;1.50;;
16531;SDS011;66872;63.142;14.482;2023-09-19T12:07:10;3.23;;;1.70;;
16531;SDS011;66872;63.142;14.482;2023-09-19T12:09:40;4.80;;;1.50;;
16531;SDS011;66872;63.142;14.482;2023-09-19T12:12:18;1.40;;;1.27;;
16531;SDS011;66872;63.142;14.482;2023-09-19T12:14:48;2.33;;;1.20;;
16531;SDS011;66872;63.142;14.482;2023-09-19T12:17:14;2.80;;;1.40;;
16531;SDS011;66872;63.142;14.482;2023-09-19T12:19:49;2.73;;;1.40;;
16531;SDS011;66872;63.142;14.482;2023-09-19T12:22:18;1.60;;;1.30;;
16531;SDS011;66872;63.142;14.482;2023-09-19T12:24:45;2.53;;;1.30;;
16531;SDS011;66872;63.142;14.482;2023-09-19T12:27:12;1.43;;;1.23;;
16531;SDS011;66872;63.142;14.482;2023-09-19T12:29:45;2.50;;;1.30;;
16531;SDS011;66872;63.142;14.482;2023-09-19T12:32:13;3.53;;;1.57;;
16531;SDS011;66872;63.142;14.482;2023-09-19T12:34:41;3.53;;;1.30;;
16531;SDS011;66872;63.142;14.482;2023-09-19T12:37:11;3.13;;;1.30;;
16531;SDS011;66872;63.142;14.482;2023-09-19T12:39:46;2.27;;;1.33;;
16531;SDS011;66872;63.142;14.482;2023-09-19T12:42:14;1.63;;;1.20;;
16531;SDS011;66872;63.142;14.482;2023-09-19T12:44:42;1.30;;;1.20;;
16531;SDS011;66872;63.142;14.482;2023-09-19T12:47:13;2.57;;;1.30;;
16531;SDS011;66872;63.142;14.482;2023-09-19T12:50:07;1.57;;;1.30;;
16531;SDS011;66872;63.142;14.482;2023-09-19T12:52:42;1.63;;;1.37;;
16531;SDS011;66872;63.142;14.482;2023-09-19T12:55:16;4.33;;;1.17;;
16531;SDS011;66872;63.142;14.482;2023-09-19T12:58:11;3.53;;;1.20;;
16531;SDS011;66872;63.142;14.482;2023-09-19T13:00:40;2.00;;;1.10;;
16531;SDS011;66872;63.142;14.482;2023-09-19T13:05:54;1.43;;;1.17;;
16531;SDS011;66872;63.142;14.482;2023-09-19T13:08:35;1.70;;;1.13;;
16531;SDS011;66872;63.142;14.482;2023-09-19T13:11:15;1.87;;;1.30;;
16531;SDS011;66872;63.142;14.482;2023-09-19T13:13:49;1.17;;;1.03;;
16531;SDS011;66872;63.142;14.482;2023-09-19T13:16:52;1.80;;;1.40;;
16531;SDS011;66872;63.142;14.482;2023-09-19T13:19:34;1.93;;;1.17;;
16531;SDS011;66872;63.142;14.482;2023-09-19T13:22:42;1.70;;;1.10;;
16531;SDS011;66872;63.142;14.482;2023-09-19T13:25:11;1.33;;;1.10;;
16531;SDS011;66872;63.142;14.482;2023-09-19T13:27:49;1.37;;;1.10;;
16531;SDS011;66872;63.142;14.482;2023-09-19T13:30:17;1.40;;;1.20;;
16531;SDS011;66872;63.142;14.482;2023-09-19T13:32:44;1.50;;;1.10;;
16531;SDS011;66872;63.142;14.482;2023-09-19T13:35:12;1.30;;;1.20;;
16531;SDS011;66872;63.142;14.482;2023-09-19T13:37:39;1.23;;;1.13;;
16531;SDS011;66872;63.142;14.482;2023-09-19T13:40:08;1.93;;;1.13;;
16531;SDS011;66872;63.142;14.482;2023-09-19T13:42:38;1.30;;;1.20;;
16531;SDS011;66872;63.142;14.482;2023-09-19T13:45:05;1.33;;;1.10;;
16531;SDS011;66872;63.142;14.482;2023-09-19T13:47:36;1.20;;;1.00;;
16531;SDS011;66872;63.142;14.482;2023-09-19T13:50:03;1.27;;;1.00;;
16531;SDS011;66872;63.142;14.482;2023-09-19T13:52:32;1.27;;;0.93;;
16531;SDS011;66872;63.142;14.482;2023-09-19T13:54:58;1.17;;;1.07;;
16531;SDS011;66872;63.142;14.482;2023-09-19T13:57:24;1.23;;;1.13;;
16531;SDS011;66872;63.142;14.482;2023-09-19T13:59:51;1.07;;;1.00;;
16531;SDS011;66872;63.142;14.482;2023-09-19T14:02:19;1.10;;;1.00;;
16531;SDS011;66872;63.142;14.482;2023-09-19T14:04:47;1.23;;;1.13;;
16531;SDS011;66872;63.142;14.482;2023-09-19T14:07:14;1.10;;;1.00;;
16531;SDS011;66872;63.142;14.482;2023-09-19T14:09:40;1.30;;;1.10;;
16531;SDS011;66872;63.142;14.482;2023-09-19T14:12:06;2.47;;;1.20;;
16531;SDS011;66872;63.142;14.482;2023-09-19T14:14:32;1.10;;;1.00;;
16531;SDS011;66872;63.142;14.482;2023-09-19T14:16:58;1.07;;;1.00;;
16531;SDS011;66872;63.142;14.482;2023-09-19T14:19:26;0.80;;;0.80;;
16531;SDS011;66872;63.142;14.482;2023-09-19T14:21:52;1.17;;;1.00;;
16531;SDS011;66872;63.142;14.482;2023-09-19T14:24:20;1.70;;;1.03;;
16531;SDS011;66872;63.142;14.482;2023-09-19T14:26:47;1.23;;;1.13;;
16531;SDS011;66872;63.142;14.482;2023-09-19T14:29:13;0.90;;;0.90;;
16531;SDS011;66872;63.142;14.482;2023-09-19T14:31:39;1.30;;;1.10;;
16531;SDS011;66872;63.142;14.482;2023-09-19T14:34:05;1.57;;;1.20;;
16531;SDS011;66872;63.142;14.482;2023-09-19T14:36:31;1.20;;;1.10;;
16531;SDS011;66872;63.142;14.482;2023-09-19T14:38:58;1.20;;;1.10;;
16531;SDS011;66872;63.142;14.482;2023-09-19T14:41:24;1.20;;;1.10;;
16531;SDS011;66872;63.142;14.482;2023-09-19T14:43:53;1.07;;;1.00;;
16531;SDS011;66872;63.142;14.482;2023-09-19T14:46:20;1.10;;;1.00;;
16531;SDS011;66872;63.142;14.482;2023-09-19T14:48:46;1.10;;;1.03;;
16531;SDS011;66872;63.142;14.482;2023-09-19T14:51:12;1.60;;;0.80;;
16531;SDS011;66872;63.142;14.482;2023-09-19T14:53:39;0.93;;;0.93;;
16531;SDS011;66872;63.142;14.482;2023-09-19T14:56:07;1.80;;;1.10;;
16531;SDS011;66872;63.142;14.482;2023-09-19T14:58:34;1.73;;;1.20;;
16531;SDS011;66872;63.142;14.482;2023-09-19T15:03:29;1.30;;;1.00;;
16531;SDS011;66872;63.142;14.482;2023-09-19T15:06:02;1.07;;;0.97;;
16531;SDS011;66872;63.142;14.482;2023-09-19T15:08:32;0.97;;;0.87;;
16531;SDS011;66872;63.142;14.482;2023-09-19T15:11:00;1.20;;;1.10;;
16531;SDS011;66872;63.142;14.482;2023-09-19T15:13:35;1.20;;;1.10;;
16531;SDS011;66872;63.142;14.482;2023-09-19T15:16:02;1.17;;;0.97;;
16531;SDS011;66872;63.142;14.482;2023-09-19T15:18:29;1.33;;;1.10;;
16531;SDS011;66872;63.142;14.482;2023-09-19T15:20:55;1.60;;;1.00;;
16531;SDS011;66872;63.142;14.482;2023-09-19T15:23:22;1.33;;;1.23;;
16531;SDS011;66872;63.142;14.482;2023-09-19T15:25:48;1.10;;;1.00;;
16531;SDS011;66872;63.142;14.482;2023-09-19T15:28:14;0.97;;;0.90;;
16531;SDS011;66872;63.142;14.482;2023-09-19T15:30:40;1.47;;;1.00;;